Bridgeport, Connecticut
Current Conditions -  °F | °C
As of 5:52 PM on Wednesday 17 Dec 2014 (Local Time) from KBDR Reporting Station
Overcast Overcast  
Wind Chill: 41°   Ceiling: 6500
Heat Index: 48°   Visibility: 10mi
Dew Point: 35°   Wind: 20mph
Humidity: 61%   Direction: 300°WNW
Pressure: 29.82"   Gusts: 25mph
Location:  41.18°N, 73.19°W
Report Text: KBDR 172252Z 30017G22KT 10SM SCT043 SCT050 OVC065 09/02 A2982 RMK AO2 SLP099 T00890017
Loading
Personal Weather Stations






























Interactive Weather Map New forecast layout! Learn more

10-Day Weather Forecast

Advertisements
Track Severe Weather on mobile